Time;durP1;ratioP1;P1;durP2;ratioP2;P2;SDS_P1;SDS_P2;PMS_P1;PMS_P2;Temp;Humidity;BMP_temperature;BMP_pressure;BME280_temperature;BME280_humidity;BME280_pressure;Samples;Min_cycle;Max_cycle;Signal;HPM_P1;HPM_P2
2022/01/01 00:00:52;;;;;;;8.57;4.45;;;;;;;-148.16;100.00;58328.31;5040396;28;20412;-60
2022/01/01 00:03:39;;;;;;;9.00;4.30;;;;;;;-148.16;100.00;58328.31;5034515;28;20045;-59
2022/01/01 00:06:24;;;;;;;7.28;4.05;;;;;;;-148.16;100.00;58328.31;5034709;28;20420;-60
2022/01/01 00:09:10;;;;;;;10.05;4.32;;;;;;;-148.16;100.00;58328.31;5033548;28;21616;-60
2022/01/01 00:11:56;;;;;;;7.28;4.47;;;;;;;-148.16;100.00;58328.31;5034084;28;20049;-61
2022/01/01 00:14:42;;;;;;;6.85;4.28;;;;;;;-148.16;100.00;58328.31;5033163;28;20045;-61
2022/01/01 00:17:27;;;;;;;7.30;4.10;;;;;;;-148.16;100.00;58328.31;5034230;28;20049;-61
2022/01/01 00:20:14;;;;;;;6.85;3.97;;;;;;;-148.16;100.00;58328.31;5032890;28;20049;-60
2022/01/01 00:23:00;;;;;;;6.55;3.97;;;;;;;-148.16;100.00;58328.31;5034343;28;20041;-60
2022/01/01 00:25:46;;;;;;;6.07;3.88;;;;;;;-148.16;100.00;58328.31;5033369;28;20046;-61
2022/01/01 00:28:31;;;;;;;6.88;3.13;;;;;;;-148.16;100.00;58328.31;5033993;28;20408;-60
2022/01/01 00:31:18;;;;;;;8.82;3.70;;;;;;;-148.16;100.00;58328.31;5019065;28;20401;-60
2022/01/01 00:34:04;;;;;;;8.77;3.30;;;;;;;-148.16;100.00;58328.31;5034127;28;20057;-60
2022/01/01 00:36:49;;;;;;;13.40;2.15;;;;;;;-148.16;100.00;58328.31;5034018;28;20053;-60
2022/01/01 00:39:35;;;;;;;3.65;1.92;;;;;;;-148.16;100.00;58328.31;5033947;28;20045;-60
2022/01/01 00:42:23;;;;;;;5.43;2.10;;;;;;;-148.16;100.00;58328.31;5034088;28;20457;-61
2022/01/01 00:45:08;;;;;;;4.03;1.60;;;;;;;-148.16;100.00;58328.31;5033891;28;20499;-61
2022/01/01 00:47:54;;;;;;;4.32;2.20;;;;;;;-148.16;100.00;58328.31;5019026;28;20045;-61
2022/01/01 00:50:40;;;;;;;2.53;1.25;;;;;;;-148.16;100.00;58328.31;5033588;28;20053;-59
2022/01/01 00:53:26;;;;;;;2.80;1.55;;;;;;;-148.16;100.00;58328.31;5032554;28;20053;-59
2022/01/01 00:56:12;;;;;;;2.80;1.40;;;;;;;-148.16;100.00;58328.31;5038143;28;20045;-60
2022/01/01 00:58:58;;;;;;;3.08;1.48;;;;;;;-148.16;100.00;58328.31;5033691;28;20481;-60
2022/01/01 01:01:43;;;;;;;3.60;1.77;;;;;;;-148.16;100.00;58328.31;5033618;28;20037;-60
2022/01/01 01:04:29;;;;;;;2.50;1.40;;;;;;;-148.16;100.00;58328.31;5033776;28;20046;-60
2022/01/01 01:07:15;;;;;;;4.15;1.63;;;;;;;-148.16;100.00;58328.31;5033665;28;20053;-60
2022/01/01 01:10:03;;;;;;;3.10;1.60;;;;;;;-148.16;100.00;58328.31;5033297;28;20045;-60
2022/01/01 01:12:49;;;;;;;2.08;1.30;;;;;;;-148.16;100.00;58328.31;5033148;28;20045;-60
2022/01/01 01:15:35;;;;;;;3.13;1.85;;;;;;;-148.16;100.00;58328.31;5037936;28;20416;-60
2022/01/01 01:18:21;;;;;;;2.63;1.60;;;;;;;-148.16;100.00;58328.31;5038000;28;20046;-61
2022/01/01 01:21:07;;;;;;;2.17;1.50;;;;;;;-148.16;100.00;58328.31;5032343;28;20049;-58
2022/01/01 01:23:54;;;;;;;3.30;1.50;;;;;;;-148.16;100.00;58328.31;5037779;28;20045;-59
2022/01/01 01:26:46;;;;;;;3.17;1.52;;;;;;;-148.16;100.00;58328.31;5033259;28;20045;-60
2022/01/01 01:29:36;;;;;;;2.22;1.50;;;;;;;-148.16;100.00;58328.31;5032941;28;20049;-59
2022/01/01 01:32:22;;;;;;;4.00;1.63;;;;;;;-148.16;100.00;58328.31;5032839;28;20497;-60
2022/01/01 01:35:10;;;;;;;3.50;1.45;;;;;;;-148.16;100.00;58328.31;5031833;28;20396;-60
2022/01/01 01:37:56;;;;;;;2.83;1.70;;;;;;;-148.16;100.00;58328.31;5037677;28;20396;-59
2022/01/01 01:40:43;;;;;;;3.53;1.65;;;;;;;-148.16;100.00;58328.31;5032366;28;20405;-59
2022/01/01 01:43:28;;;;;;;3.83;1.60;;;;;;;-148.16;100.00;58328.31;5031878;28;20045;-60
2022/01/01 01:46:14;;;;;;;3.78;1.77;;;;;;;-148.16;100.00;58328.31;5032706;28;20053;-60
2022/01/01 01:49:00;;;;;;;4.60;2.00;;;;;;;-148.16;100.00;58328.31;5026141;28;20489;-61
2022/01/01 01:51:46;;;;;;;4.10;1.90;;;;;;;-148.16;100.00;58328.31;5032415;28;20053;-61
2022/01/01 01:54:33;;;;;;;3.30;1.65;;;;;;;-148.16;100.00;58328.31;5031539;28;20053;-60
2022/01/01 01:57:19;;;;;;;4.20;2.00;;;;;;;-148.16;100.00;58328.31;5032490;28;20049;-60
2022/01/01 02:03:10;;;;;;;3.10;1.70;;;;;;;-148.16;100.00;58328.31;5033996;28;20050;-60
2022/01/01 02:05:57;;;;;;;2.97;1.83;;;;;;;-148.16;100.00;58328.31;5035331;28;20053;-60
2022/01/01 02:08:44;;;;;;;4.15;1.92;;;;;;;-148.16;100.00;58328.31;5035628;28;20053;-60
2022/01/01 02:11:30;;;;;;;4.60;2.58;;;;;;;-148.16;100.00;58328.31;5036862;28;20493;-59
2022/01/01 02:14:22;;;;;;;7.05;2.45;;;;;;;-148.16;100.00;58328.31;5036000;28;20053;-60
2022/01/01 02:17:10;;;;;;;5.47;2.13;;;;;;;-148.16;100.00;58328.31;5027665;28;20053;-60
2022/01/01 02:20:19;;;;;;;3.50;1.90;;;;;;;-148.16;100.00;58328.31;5035832;28;20057;-63
2022/01/01 02:23:05;;;;;;;5.78;2.20;;;;;;;-148.16;100.00;58328.31;5036286;28;20037;-59
2022/01/01 02:25:54;;;;;;;4.38;2.00;;;;;;;-148.16;100.00;58328.31;5036271;28;20037;-59
2022/01/01 02:28:41;;;;;;;4.13;1.92;;;;;;;-148.16;100.00;58328.31;5036056;28;20049;-59
2022/01/01 02:31:27;;;;;;;4.15;2.50;;;;;;;-148.16;100.00;58328.31;5036128;28;20061;-60
2022/01/01 02:34:13;;;;;;;3.90;1.88;;;;;;;-148.16;100.00;58328.31;5035297;28;20045;-59
2022/01/01 02:36:58;;;;;;;3.58;2.00;;;;;;;-148.16;100.00;58328.31;5035338;28;20053;-60
2022/01/01 02:39:44;;;;;;;4.28;2.50;;;;;;;-148.16;100.00;58328.31;5036075;28;20049;-59
2022/01/01 02:42:30;;;;;;;4.35;1.88;;;;;;;-148.16;100.00;58328.31;5040487;28;20049;-59
2022/01/01 02:45:16;;;;;;;4.32;2.17;;;;;;;-148.16;100.00;58328.31;5035858;28;20053;-61
2022/01/01 02:48:02;;;;;;;6.55;2.30;;;;;;;-148.16;100.00;58328.31;5035803;28;20045;-60
2022/01/01 02:50:51;;;;;;;3.97;2.10;;;;;;;-148.16;100.00;58328.31;5035649;28;20042;-61
2022/01/01 02:53:40;;;;;;;2.80;1.73;;;;;;;-148.16;100.00;58328.31;5035455;28;20049;-59
2022/01/01 02:56:26;;;;;;;4.00;2.33;;;;;;;-148.16;100.00;58328.31;5035403;28;20053;-59
2022/01/01 02:59:12;;;;;;;5.07;2.33;;;;;;;-148.16;100.00;58328.31;5035564;28;20045;-60
2022/01/01 03:01:58;;;;;;;3.97;1.80;;;;;;;-148.16;100.00;58328.31;5035479;28;20046;-60
2022/01/01 03:04:43;;;;;;;4.13;1.95;;;;;;;-148.16;100.00;58328.31;5034294;28;20492;-60
2022/01/01 03:07:29;;;;;;;5.50;2.70;;;;;;;-148.16;100.00;58328.31;5041277;28;20034;-60
2022/01/01 03:10:15;;;;;;;4.90;2.53;;;;;;;-148.16;100.00;58328.31;5037235;28;20049;-60
2022/01/01 03:13:01;;;;;;;3.97;2.45;;;;;;;-148.16;100.00;58328.31;5040585;28;20053;-60
2022/01/01 03:15:46;;;;;;;3.85;2.10;;;;;;;-148.16;100.00;58328.31;5035535;28;20054;-60
2022/01/01 03:18:32;;;;;;;3.67;2.22;;;;;;;-148.16;100.00;58328.31;5035691;28;20049;-59
2022/01/01 03:21:18;;;;;;;3.92;1.98;;;;;;;-148.16;100.00;58328.31;5040210;28;20045;-59
2022/01/01 03:24:05;;;;;;;3.75;2.30;;;;;;;-148.16;100.00;58328.31;5040099;28;20045;-62
2022/01/01 03:26:50;;;;;;;4.32;2.25;;;;;;;-148.16;100.00;58328.31;5035064;28;20045;-59
2022/01/01 03:29:36;;;;;;;5.50;2.50;;;;;;;-148.16;100.00;58328.31;5035106;28;20053;-59
2022/01/01 03:32:22;;;;;;;4.25;2.30;;;;;;;-148.16;100.00;58328.31;5015975;28;20057;-59
2022/01/01 03:35:08;;;;;;;4.13;2.17;;;;;;;-148.16;100.00;58328.31;5015281;28;20057;-59
2022/01/01 03:37:54;;;;;;;4.90;2.40;;;;;;;-148.16;100.00;58328.31;5015411;28;20477;-59
2022/01/01 03:40:40;;;;;;;6.88;2.60;;;;;;;-148.16;100.00;58328.31;5021071;28;20049;-60
2022/01/01 03:43:26;;;;;;;4.45;2.58;;;;;;;-148.16;100.00;58328.31;5014909;28;20042;-60
2022/01/01 03:46:12;;;;;;;3.63;2.20;;;;;;;-148.16;100.00;58328.31;5014833;28;20405;-60
2022/01/01 03:48:58;;;;;;;5.88;2.60;;;;;;;-148.16;100.00;58328.31;5015158;28;20050;-60
2022/01/01 03:51:43;;;;;;;3.92;2.50;;;;;;;-148.16;100.00;58328.31;5015055;28;20050;-60
2022/01/01 03:54:29;;;;;;;4.35;2.25;;;;;;;-148.16;100.00;58328.31;5013795;28;20049;-60
2022/01/01 03:57:15;;;;;;;4.20;2.40;;;;;;;-148.16;100.00;58328.31;5029425;28;20053;-60
2022/01/01 04:00:01;;;;;;;3.47;2.30;;;;;;;-148.16;100.00;58328.31;5034711;28;20046;-59
2022/01/01 04:02:47;;;;;;;5.28;2.50;;;;;;;-148.16;100.00;58328.31;5034504;28;20041;-59
2022/01/01 04:05:35;;;;;;;8.18;2.83;;;;;;;-148.16;100.00;58328.31;5034312;28;20492;-59
2022/01/01 04:08:21;;;;;;;3.67;2.40;;;;;;;-148.16;100.00;58328.31;5034019;28;20050;-60
2022/01/01 04:11:06;;;;;;;4.18;2.45;;;;;;;-148.16;100.00;58328.31;5034565;28;20141;-60
2022/01/01 04:13:52;;;;;;;4.30;2.13;;;;;;;-148.16;100.00;58328.31;5038771;28;20041;-60
2022/01/01 04:16:38;;;;;;;8.13;2.25;;;;;;;-148.16;100.00;58328.31;5033267;28;20053;-59
2022/01/01 04:19:35;;;;;;;4.22;2.28;;;;;;;-148.16;100.00;58328.31;5033162;28;20038;-60
2022/01/01 04:22:21;;;;;;;5.05;2.40;;;;;;;-148.16;100.00;58328.31;5032669;28;20049;-60
2022/01/01 04:25:07;;;;;;;4.03;2.10;;;;;;;-148.16;100.00;58328.31;5033329;28;20041;-60
2022/01/01 04:27:53;;;;;;;5.72;2.33;;;;;;;-148.16;100.00;58328.31;5032729;28;20049;-60
2022/01/01 04:30:39;;;;;;;4.72;2.40;;;;;;;-148.16;100.00;58328.31;5033502;28;20049;-60
2022/01/01 04:33:25;;;;;;;3.38;2.10;;;;;;;-148.16;100.00;58328.31;5033803;28;20049;-60
2022/01/01 04:36:12;;;;;;;4.43;2.30;;;;;;;-148.16;100.00;58328.31;5032977;28;20493;-60
2022/01/01 04:38:58;;;;;;;4.78;2.40;;;;;;;-148.16;100.00;58328.31;5033841;28;20045;-60
2022/01/01 04:41:44;;;;;;;7.35;2.47;;;;;;;-148.16;100.00;58328.31;5033805;28;20045;-59
2022/01/01 04:44:30;;;;;;;3.67;2.28;;;;;;;-148.16;100.00;58328.31;5033715;28;20050;-59
2022/01/01 04:47:15;;;;;;;4.65;1.98;;;;;;;-148.16;100.00;58328.31;5032622;28;20045;-59
2022/01/01 04:50:04;;;;;;;5.05;2.10;;;;;;;-148.16;100.00;58328.31;5033576;28;20037;-59
2022/01/01 04:52:49;;;;;;;4.85;2.42;;;;;;;-148.16;100.00;58328.31;5039323;28;20053;-61
2022/01/01 04:55:35;;;;;;;4.57;1.92;;;;;;;-148.16;100.00;58328.31;5033466;28;20049;-60
2022/01/01 04:58:21;;;;;;;3.22;1.77;;;;;;;-148.16;100.00;58328.31;5033543;28;20057;-59
2022/01/01 05:01:07;;;;;;;4.40;1.90;;;;;;;-148.16;100.00;58328.31;5033596;28;20480;-59
2022/01/01 05:03:55;;;;;;;2.40;1.55;;;;;;;-148.16;100.00;58328.31;5033358;28;20037;-59
2022/01/01 05:06:41;;;;;;;3.40;1.83;;;;;;;-148.16;100.00;58328.31;5033219;28;20476;-59
2022/01/01 05:09:30;;;;;;;3.65;1.63;;;;;;;-148.16;100.00;58328.31;5033032;28;20061;-59
2022/01/01 05:12:16;;;;;;;4.00;1.40;;;;;;;-148.16;100.00;58328.31;5032040;28;20057;-59
2022/01/01 05:15:01;;;;;;;2.08;1.50;;;;;;;-148.16;100.00;58328.31;5032993;28;20484;-60
2022/01/01 05:17:47;;;;;;;3.67;1.40;;;;;;;-148.16;100.00;58328.31;5033027;28;20045;-59
2022/01/01 05:20:33;;;;;;;2.85;1.20;;;;;;;-148.16;100.00;58328.31;5033088;28;20049;-59
2022/01/01 05:23:19;;;;;;;4.20;1.50;;;;;;;-148.16;100.00;58328.31;5032867;28;20054;-60
2022/01/01 05:26:04;;;;;;;3.20;1.30;;;;;;;-148.16;100.00;58328.31;5032958;28;20476;-60
2022/01/01 05:28:50;;;;;;;2.83;1.42;;;;;;;-148.16;100.00;58328.31;5031681;28;20487;-60
2022/01/01 05:31:36;;;;;;;3.20;1.60;;;;;;;-148.16;100.00;58328.31;5032701;28;20041;-59
2022/01/01 05:34:22;;;;;;;3.03;1.75;;;;;;;-148.16;100.00;58328.31;5032741;28;20041;-59
2022/01/01 05:37:07;;;;;;;3.92;1.70;;;;;;;-148.16;100.00;58328.31;5036881;28;20409;-60
2022/01/01 05:39:53;;;;;;;2.58;1.42;;;;;;;-148.16;100.00;58328.31;5033037;28;20041;-61
2022/01/01 05:42:39;;;;;;;3.35;1.63;;;;;;;-148.16;100.00;58328.31;5033424;28;20045;-60
2022/01/01 05:45:24;;;;;;;2.95;1.50;;;;;;;-148.16;100.00;58328.31;5032947;28;20049;-59
2022/01/01 05:48:10;;;;;;;4.45;1.70;;;;;;;-148.16;100.00;58328.31;5024115;28;20057;-59
2022/01/01 05:50:56;;;;;;;4.15;1.60;;;;;;;-148.16;100.00;58328.31;5032845;28;20049;-60
2022/01/01 05:53:42;;;;;;;3.58;1.55;;;;;;;-148.16;100.00;58328.31;5032834;28;20045;-60
2022/01/01 05:56:28;;;;;;;3.45;1.58;;;;;;;-148.16;100.00;58328.31;5032586;28;20041;-60
2022/01/01 05:59:14;;;;;;;2.47;1.52;;;;;;;-148.16;100.00;58328.31;5037337;28;20049;-59
2022/01/01 06:02:00;;;;;;;3.30;1.60;;;;;;;-148.16;100.00;58328.31;5032621;28;20412;-59
2022/01/01 06:04:45;;;;;;;3.03;1.38;;;;;;;-148.16;100.00;58328.31;5032717;28;20053;-60
2022/01/01 06:07:31;;;;;;;2.65;1.63;;;;;;;-148.16;100.00;58328.31;5031834;28;20049;-59
2022/01/01 06:10:16;;;;;;;3.00;1.80;;;;;;;-148.16;100.00;58328.31;5034302;28;20046;-60
2022/01/01 06:13:05;;;;;;;4.25;1.75;;;;;;;-148.16;100.00;58328.31;5037268;28;20053;-60
2022/01/01 06:15:51;;;;;;;2.80;1.35;;;;;;;-148.16;100.00;58328.31;5031844;28;20049;-60
2022/01/01 06:18:37;;;;;;;3.47;2.17;;;;;;;-148.16;100.00;58328.31;5032701;28;20054;-60
2022/01/01 06:21:23;;;;;;;2.75;1.60;;;;;;;-148.16;100.00;58328.31;5032574;28;20404;-60
2022/01/01 06:24:08;;;;;;;3.00;1.40;;;;;;;-148.16;100.00;58328.31;5032363;28;20049;-60
2022/01/01 06:26:54;;;;;;;4.28;1.50;;;;;;;-148.16;100.00;58328.31;5032459;28;20060;-60
2022/01/01 06:29:40;;;;;;;2.47;1.40;;;;;;;-148.16;100.00;58328.31;5032621;28;20053;-60
2022/01/01 06:32:26;;;;;;;2.17;1.20;;;;;;;-148.16;100.00;58328.31;5032402;28;20041;-60
2022/01/01 06:35:12;;;;;;;3.38;1.55;;;;;;;-148.16;100.00;58328.31;5037201;28;20384;-60
2022/01/01 06:37:58;;;;;;;2.30;1.20;;;;;;;-148.16;100.00;58328.31;5032258;28;20046;-59
2022/01/01 06:40:44;;;;;;;2.65;1.73;;;;;;;-148.16;100.00;58328.31;5032196;28;20053;-60
2022/01/01 06:43:29;;;;;;;3.47;1.33;;;;;;;-148.16;100.00;58328.31;5032212;28;20057;-60
2022/01/01 06:46:15;;;;;;;3.70;1.48;;;;;;;-148.16;100.00;58328.31;5032463;28;20049;-60
2022/01/01 06:49:01;;;;;;;3.13;1.67;;;;;;;-148.16;100.00;58328.31;5038549;28;20045;-59
2022/01/01 06:51:47;;;;;;;2.85;1.40;;;;;;;-148.16;100.00;58328.31;5036011;28;20049;-62
2022/01/01 06:54:33;;;;;;;2.55;1.42;;;;;;;-148.16;100.00;58328.31;5034817;28;20049;-60
2022/01/01 06:57:19;;;;;;;1.65;1.13;;;;;;;-148.16;100.00;58328.31;5036104;28;20057;-60
2022/01/01 07:00:05;;;;;;;2.55;1.27;;;;;;;-148.16;100.00;58328.31;5035637;28;20423;-60
2022/01/01 07:02:51;;;;;;;3.78;1.60;;;;;;;-148.16;100.00;58328.31;5035469;28;20049;-60
2022/01/01 07:05:36;;;;;;;3.25;1.35;;;;;;;-148.16;100.00;58328.31;5035557;28;20041;-60
2022/01/01 07:08:22;;;;;;;2.83;1.27;;;;;;;-148.16;100.00;58328.31;5041350;28;20049;-60
2022/01/01 07:11:08;;;;;;;1.92;1.05;;;;;;;-148.16;100.00;58328.31;5035241;28;20476;-59
2022/01/01 07:13:54;;;;;;;1.80;1.05;;;;;;;-148.16;100.00;58328.31;5035270;28;20049;-60
2022/01/01 07:16:40;;;;;;;3.90;1.20;;;;;;;-148.16;100.00;58328.31;5035179;28;20049;-60
2022/01/01 07:19:25;;;;;;;3.20;1.40;;;;;;;-148.16;100.00;58328.31;5040092;28;20045;-60
2022/01/01 07:22:11;;;;;;;2.00;1.13;;;;;;;-148.16;100.00;58328.31;5035366;28;20053;-60
2022/01/01 07:24:57;;;;;;;1.38;0.80;;;;;;;-148.16;100.00;58328.31;5035167;28;20038;-60
2022/01/01 07:27:43;;;;;;;2.30;1.05;;;;;;;-148.16;100.00;58328.31;5035063;28;20417;-60
2022/01/01 07:30:29;;;;;;;2.47;1.40;;;;;;;-148.16;100.00;58328.31;5033917;28;20437;-60
2022/01/01 07:33:16;;;;;;;2.15;1.20;;;;;;;-148.16;100.00;58328.31;5035416;28;20061;-61
2022/01/01 07:36:01;;;;;;;3.75;1.38;;;;;;;-148.16;100.00;58328.31;5034985;28;20045;-60
2022/01/01 07:38:47;;;;;;;1.80;0.90;;;;;;;-148.16;100.00;58328.31;5034967;28;20491;-60
2022/01/01 07:41:32;;;;;;;2.20;1.42;;;;;;;-148.16;100.00;58328.31;5034816;28;20045;-60
2022/01/01 07:44:18;;;;;;;2.17;1.02;;;;;;;-148.16;100.00;58328.31;5034676;28;20041;-60
2022/01/01 07:47:04;;;;;;;2.63;1.20;;;;;;;-148.16;100.00;58328.31;5034819;28;20042;-60
2022/01/01 07:49:50;;;;;;;2.90;1.20;;;;;;;-148.16;100.00;58328.31;5033551;28;20041;-60
2022/01/01 07:52:38;;;;;;;1.95;1.08;;;;;;;-148.16;100.00;58328.31;5039397;28;20481;-60
2022/01/01 07:55:24;;;;;;;2.97;1.45;;;;;;;-148.16;100.00;58328.31;5034660;28;20049;-61
2022/01/01 07:58:10;;;;;;;2.08;1.23;;;;;;;-148.16;100.00;58328.31;5034504;28;20045;-60
2022/01/01 08:00:56;;;;;;;1.55;1.10;;;;;;;-148.16;100.00;58328.31;5033549;28;20045;-58
2022/01/01 08:03:42;;;;;;;2.33;1.25;;;;;;;-148.16;100.00;58328.31;5034184;28;20487;-60
2022/01/01 08:06:31;;;;;;;2.85;1.17;;;;;;;-148.16;100.00;58328.31;5033725;28;20053;-60
2022/01/01 08:09:17;;;;;;;2.28;1.00;;;;;;;-148.16;100.00;58328.31;5034138;28;20042;-60
2022/01/01 08:12:03;;;;;;;2.75;1.10;;;;;;;-148.16;100.00;58328.31;5034593;28;20049;-61
2022/01/01 08:14:48;;;;;;;1.80;0.95;;;;;;;-148.16;100.00;58328.31;5034135;28;20057;-60
2022/01/01 08:17:34;;;;;;;1.55;1.00;;;;;;;-148.16;100.00;58328.31;5034049;28;20481;-61
2022/01/01 08:20:21;;;;;;;1.73;0.93;;;;;;;-148.16;100.00;58328.31;5033074;28;20045;-61
2022/01/01 08:23:07;;;;;;;2.60;1.00;;;;;;;-148.16;100.00;58328.31;5034117;28;20051;-60
2022/01/01 08:25:56;;;;;;;2.80;1.33;;;;;;;-148.16;100.00;58328.31;5019227;28;20045;-60
2022/01/01 08:28:41;;;;;;;1.13;0.80;;;;;;;-148.16;100.00;58328.31;5033092;28;20050;-61
2022/01/01 08:31:27;;;;;;;2.63;1.30;;;;;;;-148.16;100.00;58328.31;5033951;28;20045;-60
2022/01/01 08:34:13;;;;;;;4.05;1.50;;;;;;;-148.16;100.00;58328.31;5019182;28;20049;-59
2022/01/01 08:36:59;;;;;;;2.83;1.13;;;;;;;-148.16;100.00;58328.31;5033924;28;20057;-58
2022/01/01 08:39:45;;;;;;;3.92;1.27;;;;;;;-148.16;100.00;58328.31;5033909;28;20041;-59
2022/01/01 08:42:31;;;;;;;1.65;0.95;;;;;;;-148.16;100.00;58328.31;5032864;28;20049;-59
2022/01/01 08:45:16;;;;;;;2.72;1.20;;;;;;;-148.16;100.00;58328.31;5033486;28;20045;-60
2022/01/01 08:48:03;;;;;;;3.20;1.27;;;;;;;-148.16;100.00;58328.31;5033644;28;20046;-59
2022/01/01 08:50:49;;;;;;;2.00;0.90;;;;;;;-148.16;100.00;58328.31;5033548;28;20045;-60
2022/01/01 08:53:35;;;;;;;2.40;1.40;;;;;;;-148.16;100.00;58328.31;5033497;28;20041;-60
2022/01/01 08:56:21;;;;;;;2.13;1.08;;;;;;;-148.16;100.00;58328.31;5033248;28;20045;-59
2022/01/01 08:59:07;;;;;;;1.70;1.10;;;;;;;-148.16;100.00;58328.31;5032672;28;20049;-59
2022/01/01 09:01:53;;;;;;;3.20;1.25;;;;;;;-148.16;100.00;58328.31;5033767;28;20050;-59
2022/01/01 09:04:38;;;;;;;3.65;1.50;;;;;;;-148.16;100.00;58328.31;5033866;28;20049;-59
2022/01/01 09:07:28;;;;;;;2.20;1.10;;;;;;;-148.16;100.00;58328.31;5038658;28;20053;-60
2022/01/01 09:10:15;;;;;;;2.88;1.45;;;;;;;-148.16;100.00;58328.31;5032158;28;20061;-60
2022/01/01 09:13:07;;;;;;;2.50;1.38;;;;;;;-148.16;100.00;58328.31;5038589;28;20054;-60
2022/01/01 09:15:53;;;;;;;2.50;1.08;;;;;;;-148.16;100.00;58328.31;5033027;28;20045;-60
2022/01/01 09:18:40;;;;;;;2.13;1.00;;;;;;;-148.16;100.00;58328.31;5037749;28;20049;-59
2022/01/01 09:21:27;;;;;;;2.13;1.02;;;;;;;-148.16;100.00;58328.31;5032996;28;20071;-60
2022/01/01 09:24:12;;;;;;;2.67;1.27;;;;;;;-148.16;100.00;58328.31;5033042;28;20045;-60
2022/01/01 09:26:58;;;;;;;1.90;0.88;;;;;;;-148.16;100.00;58328.31;5032904;28;20049;-61
2022/01/01 09:29:44;;;;;;;1.83;0.80;;;;;;;-148.16;100.00;58328.31;5032867;28;20053;-59
2022/01/01 09:32:30;;;;;;;3.00;1.13;;;;;;;-148.16;100.00;58328.31;5032875;28;20189;-60
2022/01/01 09:35:17;;;;;;;2.03;1.10;;;;;;;-148.16;100.00;58328.31;5033105;28;20488;-60
2022/01/01 09:38:03;;;;;;;2.70;1.08;;;;;;;-148.16;100.00;58328.31;5038809;28;20050;-60
2022/01/01 09:40:51;;;;;;;4.47;0.93;;;;;;;-148.16;100.00;58328.31;5032438;28;20053;-59
2022/01/01 09:43:37;;;;;;;1.70;0.80;;;;;;;-148.16;100.00;58328.31;5032658;28;20041;-59
2022/01/01 09:46:25;;;;;;;2.25;0.90;;;;;;;-148.16;100.00;58328.31;5032709;28;20037;-58
2022/01/01 09:49:18;;;;;;;1.90;1.10;;;;;;;-148.16;100.00;58328.31;5031601;28;20042;-60
2022/01/01 09:52:04;;;;;;;2.00;1.02;;;;;;;-148.16;100.00;58328.31;5032726;28;20053;-60
2022/01/01 09:54:51;;;;;;;1.65;1.02;;;;;;;-148.16;100.00;58328.31;5032736;28;20061;-61
2022/01/01 09:57:37;;;;;;;2.08;1.08;;;;;;;-148.16;100.00;58328.31;5032466;28;20045;-59
2022/01/01 10:00:23;;;;;;;1.65;1.08;;;;;;;-148.16;100.00;58328.31;5032324;28;20049;-60
2022/01/01 10:03:13;;;;;;;2.88;1.08;;;;;;;-148.16;100.00;58328.31;5037669;28;20485;-60
2022/01/01 10:06:01;;;;;;;2.08;0.73;;;;;;;-148.16;100.00;58328.31;5031472;28;20034;-59
2022/01/01 10:08:57;;;;;;;1.83;1.00;;;;;;;-148.16;100.00;58328.31;5032628;28;20049;-60
2022/01/01 10:11:43;;;;;;;1.35;0.90;;;;;;;-148.16;100.00;58328.31;5032498;28;20046;-60
2022/01/01 10:14:40;;;;;;;2.00;1.10;;;;;;;-148.16;100.00;58328.31;5032361;28;20045;-60
2022/01/01 10:17:26;;;;;;;2.35;0.88;;;;;;;-148.16;100.00;58328.31;5032425;28;20503;-60
2022/01/01 10:20:13;;;;;;;1.70;1.00;;;;;;;-148.16;100.00;58328.31;5031273;28;20046;-60
2022/01/01 10:23:16;;;;;;;2.30;1.10;;;;;;;-148.16;100.00;58328.31;5032495;28;20041;-60
2022/01/01 10:29:31;;;;;;;1.90;1.05;;;;;;;-148.16;100.00;58328.31;5036431;28;20041;-60
2022/01/01 10:32:17;;;;;;;2.10;1.00;;;;;;;-148.16;100.00;58328.31;5027082;28;20050;-61
2022/01/01 10:35:05;;;;;;;1.15;0.60;;;;;;;-148.16;100.00;58328.31;5036157;28;20054;-61
2022/01/01 10:37:51;;;;;;;1.95;0.88;;;;;;;-148.16;100.00;58328.31;5036008;28;20049;-60
2022/01/01 10:40:37;;;;;;;1.40;1.00;;;;;;;-148.16;100.00;58328.31;5036152;28;20045;-62
2022/01/01 10:43:38;;;;;;;1.90;0.95;;;;;;;-148.16;100.00;58328.31;5035896;28;20480;-60
2022/01/01 10:46:24;;;;;;;1.40;0.97;;;;;;;-148.16;100.00;58328.31;5034937;28;20046;-60
2022/01/01 10:52:46;;;;;;;2.20;0.80;;;;;;;-148.16;100.00;58328.31;5035181;28;20045;-60
2022/01/01 10:55:31;;;;;;;1.80;1.00;;;;;;;-148.16;100.00;58328.31;5040216;28;20404;-60
2022/01/01 10:58:20;;;;;;;1.80;0.73;;;;;;;-148.16;100.00;58328.31;5035487;28;20384;-60
2022/01/01 11:01:08;;;;;;;2.03;1.00;;;;;;;-148.16;100.00;58328.31;5034600;28;20049;-60
2022/01/01 11:03:55;;;;;;;1.70;0.80;;;;;;;-148.16;100.00;58328.31;5035557;28;20057;-60
2022/01/01 11:06:41;;;;;;;1.52;1.10;;;;;;;-148.16;100.00;58328.31;5041595;28;20057;-61
2022/01/01 11:09:28;;;;;;;1.77;0.80;;;;;;;-148.16;100.00;58328.31;5035544;28;20041;-61
2022/01/01 11:12:17;;;;;;;4.50;0.80;;;;;;;-148.16;100.00;58328.31;5035564;28;20405;-60
2022/01/01 11:15:04;;;;;;;3.15;0.90;;;;;;;-148.16;100.00;58328.31;5035300;28;20045;-60
2022/01/01 11:17:49;;;;;;;1.35;0.80;;;;;;;-148.16;100.00;58328.31;5035098;28;20041;-60
2022/01/01 11:20:36;;;;;;;1.23;0.70;;;;;;;-148.16;100.00;58328.31;5035864;28;20045;-60
2022/01/01 11:23:22;;;;;;;2.83;0.90;;;;;;;-148.16;100.00;58328.31;5034292;28;20129;-60
2022/01/01 11:26:08;;;;;;;0.70;0.50;;;;;;;-148.16;100.00;58328.31;5035047;28;20476;-60
2022/01/01 11:28:54;;;;;;;1.95;1.10;;;;;;;-148.16;100.00;58328.31;5034214;28;20484;-60
2022/01/01 11:31:42;;;;;;;1.50;0.75;;;;;;;-148.16;100.00;58328.31;5035084;28;20449;-60
2022/01/01 11:34:35;;;;;;;1.83;0.77;;;;;;;-148.16;100.00;58328.31;5033856;28;20484;-61
2022/01/01 11:37:24;;;;;;;2.42;0.85;;;;;;;-148.16;100.00;58328.31;5034782;28;20049;-59
2022/01/01 11:40:10;;;;;;;1.67;0.90;;;;;;;-148.16;100.00;58328.31;5035120;28;20073;-59
2022/01/01 11:42:56;;;;;;;1.13;0.70;;;;;;;-148.16;100.00;58328.31;5035041;28;20049;-60
2022/01/01 11:45:47;;;;;;;2.00;0.90;;;;;;;-148.16;100.00;58328.31;5034949;28;20049;-60
2022/01/01 11:48:41;;;;;;;0.95;0.55;;;;;;;-148.16;100.00;58328.31;5039608;28;20053;-60
2022/01/01 11:51:35;;;;;;;1.60;0.80;;;;;;;-148.16;100.00;58328.31;5034577;28;20049;-60
2022/01/01 11:54:25;;;;;;;1.50;1.00;;;;;;;-148.16;100.00;58328.31;5033641;28;20049;-59
2022/01/01 11:57:27;;;;;;;2.15;0.93;;;;;;;-148.16;100.00;58328.31;5034739;28;20053;-60
2022/01/01 12:00:13;;;;;;;1.33;0.80;;;;;;;-148.16;100.00;58328.31;5034393;28;20046;-60
2022/01/01 12:03:12;;;;;;;1.50;0.85;;;;;;;-148.16;100.00;58328.31;5034361;28;20045;-59
2022/01/01 12:06:02;;;;;;;2.15;0.98;;;;;;;-148.16;100.00;58328.31;5019487;28;20046;-59
2022/01/01 12:08:49;;;;;;;2.55;1.05;;;;;;;-148.16;100.00;58328.31;5040487;28;20041;-60
2022/01/01 12:11:36;;;;;;;1.73;1.02;;;;;;;-148.16;100.00;58328.31;5034306;28;20042;-60
2022/01/01 12:14:25;;;;;;;2.17;1.20;;;;;;;-148.16;100.00;58328.31;5034531;28;20046;-59
2022/01/01 12:17:16;;;;;;;3.17;1.10;;;;;;;-148.16;100.00;58328.31;5034025;28;20037;-60
2022/01/01 12:20:08;;;;;;;1.75;1.08;;;;;;;-148.16;100.00;58328.31;5033362;28;20057;-60
2022/01/01 12:22:54;;;;;;;2.15;0.88;;;;;;;-148.16;100.00;58328.31;5033994;28;20045;-60
2022/01/01 12:25:42;;;;;;;1.98;0.95;;;;;;;-148.16;100.00;58328.31;5033820;28;20045;-60
2022/01/01 12:28:32;;;;;;;2.17;1.20;;;;;;;-148.16;100.00;58328.31;5032788;28;20049;-60
2022/01/01 12:31:22;;;;;;;2.28;1.00;;;;;;;-148.16;100.00;58328.31;5034063;28;20049;-60
2022/01/01 12:34:10;;;;;;;3.05;1.40;;;;;;;-148.16;100.00;58328.31;5038550;28;20045;-60
2022/01/01 12:36:56;;;;;;;1.85;0.90;;;;;;;-148.16;100.00;58328.31;5032501;28;20053;-60
2022/01/01 12:40:03;;;;;;;1.63;0.90;;;;;;;-148.16;100.00;58328.31;5033522;28;20053;-60
2022/01/01 12:42:48;;;;;;;1.30;0.93;;;;;;;-148.16;100.00;58328.31;5039449;28;20045;-60
2022/01/01 12:45:35;;;;;;;2.95;0.80;;;;;;;-148.16;100.00;58328.31;5038558;28;20042;-61
2022/01/01 12:48:26;;;;;;;3.22;1.00;;;;;;;-148.16;100.00;58328.31;5024316;28;20042;-61